sensor_id;sensor_type;location;lat;lon;timestamp;pressure;altitude;pressure_sealevel;temperature;humidity
12969;BME280;6549;53.128;8.182;2023-05-24T00:00:50;101973.47;;;7.33;100.00
12969;BME280;6549;53.128;8.182;2023-05-24T00:03:52;101978.00;;;7.29;100.00
12969;BME280;6549;53.128;8.182;2023-05-24T00:06:53;101975.28;;;7.29;100.00
12969;BME280;6549;53.128;8.182;2023-05-24T00:09:53;101976.09;;;7.29;100.00
12969;BME280;6549;53.128;8.182;2023-05-24T00:12:54;101981.06;;;7.27;100.00
12969;BME280;6549;53.128;8.182;2023-05-24T00:15:54;101969.19;;;7.23;100.00
12969;BME280;6549;53.128;8.182;2023-05-24T00:18:54;101984.00;;;7.22;100.00
12969;BME280;6549;53.128;8.182;2023-05-24T00:21:57;101982.75;;;7.19;100.00
12969;BME280;6549;53.128;8.182;2023-05-24T00:24:57;101981.47;;;7.17;100.00
12969;BME280;6549;53.128;8.182;2023-05-24T00:27:57;101977.09;;;7.25;100.00
12969;BME280;6549;53.128;8.182;2023-05-24T00:30:58;101971.69;;;7.16;100.00
12969;BME280;6549;53.128;8.182;2023-05-24T00:33:58;101965.72;;;7.14;100.00
12969;BME280;6549;53.128;8.182;2023-05-24T00:36:59;101964.13;;;7.13;100.00
12969;BME280;6549;53.128;8.182;2023-05-24T00:39:59;101966.84;;;7.13;100.00
12969;BME280;6549;53.128;8.182;2023-05-24T00:43:00;101959.47;;;7.13;100.00
12969;BME280;6549;53.128;8.182;2023-05-24T00:46:36;101957.81;;;7.21;100.00
12969;BME280;6549;53.128;8.182;2023-05-24T00:49:30;101945.41;;;7.23;100.00
12969;BME280;6549;53.128;8.182;2023-05-24T00:52:30;101952.81;;;7.23;100.00
12969;BME280;6549;53.128;8.182;2023-05-24T00:55:33;101949.06;;;7.28;100.00
12969;BME280;6549;53.128;8.182;2023-05-24T00:58:33;101963.06;;;7.26;100.00
12969;BME280;6549;53.128;8.182;2023-05-24T01:01:34;101960.69;;;7.25;100.00
12969;BME280;6549;53.128;8.182;2023-05-24T01:04:36;101954.22;;;7.29;100.00
12969;BME280;6549;53.128;8.182;2023-05-24T01:11:06;101950.69;;;7.29;100.00
12969;BME280;6549;53.128;8.182;2023-05-24T01:14:33;101951.00;;;7.27;100.00
12969;BME280;6549;53.128;8.182;2023-05-24T01:17:52;101957.28;;;7.28;100.00
12969;BME280;6549;53.128;8.182;2023-05-24T01:21:05;101949.19;;;7.31;100.00
12969;BME280;6549;53.128;8.182;2023-05-24T01:27:37;101959.47;;;7.34;100.00
12969;BME280;6549;53.128;8.182;2023-05-24T01:30:39;101950.13;;;7.35;100.00
12969;BME280;6549;53.128;8.182;2023-05-24T01:33:43;101958.31;;;7.35;100.00
12969;BME280;6549;53.128;8.182;2023-05-24T01:36:44;101955.25;;;7.37;100.00
12969;BME280;6549;53.128;8.182;2023-05-24T01:39:45;101956.53;;;7.39;100.00
12969;BME280;6549;53.128;8.182;2023-05-24T01:42:58;101949.72;;;7.45;100.00
12969;BME280;6549;53.128;8.182;2023-05-24T01:46:09;101943.44;;;7.45;100.00
12969;BME280;6549;53.128;8.182;2023-05-24T01:49:25;101942.81;;;7.48;100.00
12969;BME280;6549;53.128;8.182;2023-05-24T01:52:27;101936.53;;;7.47;100.00
12969;BME280;6549;53.128;8.182;2023-05-24T01:55:31;101938.78;;;7.45;100.00
12969;BME280;6549;53.128;8.182;2023-05-24T01:58:33;101942.00;;;7.47;100.00
12969;BME280;6549;53.128;8.182;2023-05-24T02:01:35;101944.38;;;7.49;100.00
12969;BME280;6549;53.128;8.182;2023-05-24T02:04:36;101943.56;;;7.48;100.00
12969;BME280;6549;53.128;8.182;2023-05-24T02:07:37;101952.25;;;7.50;100.00
12969;BME280;6549;53.128;8.182;2023-05-24T02:10:38;101946.47;;;7.52;100.00
12969;BME280;6549;53.128;8.182;2023-05-24T02:13:39;101945.19;;;7.49;100.00
12969;BME280;6549;53.128;8.182;2023-05-24T02:16:39;101943.25;;;7.50;100.00
12969;BME280;6549;53.128;8.182;2023-05-24T02:19:41;101938.25;;;7.52;100.00
12969;BME280;6549;53.128;8.182;2023-05-24T02:22:44;101944.38;;;7.49;100.00
12969;BME280;6549;53.128;8.182;2023-05-24T02:25:45;101944.38;;;7.49;100.00
12969;BME280;6549;53.128;8.182;2023-05-24T02:28:45;101935.63;;;7.55;100.00
12969;BME280;6549;53.128;8.182;2023-05-24T02:31:47;101942.56;;;7.53;100.00
12969;BME280;6549;53.128;8.182;2023-05-24T02:34:51;101944.38;;;7.49;100.00
12969;BME280;6549;53.128;8.182;2023-05-24T02:37:51;101932.50;;;7.45;100.00
12969;BME280;6549;53.128;8.182;2023-05-24T02:40:51;101942.19;;;7.42;100.00
12969;BME280;6549;53.128;8.182;2023-05-24T02:43:51;101936.25;;;7.40;100.00
12969;BME280;6549;53.128;8.182;2023-05-24T02:46:52;101936.84;;;7.46;100.00
12969;BME280;6549;53.128;8.182;2023-05-24T02:49:53;101925.09;;;7.45;100.00
12969;BME280;6549;53.128;8.182;2023-05-24T02:52:53;101926.38;;;7.48;100.00
12969;BME280;6549;53.128;8.182;2023-05-24T02:55:53;101931.97;;;7.51;100.00
12969;BME280;6549;53.128;8.182;2023-05-24T02:58:54;101926.50;;;7.51;100.00
12969;BME280;6549;53.128;8.182;2023-05-24T03:01:55;101919.75;;;7.49;100.00
12969;BME280;6549;53.128;8.182;2023-05-24T03:04:55;101920.25;;;7.51;100.00
12969;BME280;6549;53.128;8.182;2023-05-24T03:07:56;101923.78;;;7.51;100.00
12969;BME280;6549;53.128;8.182;2023-05-24T03:10:57;101916.50;;;7.55;100.00
12969;BME280;6549;53.128;8.182;2023-05-24T03:13:57;101916.94;;;7.57;100.00
12969;BME280;6549;53.128;8.182;2023-05-24T03:16:58;101917.41;;;7.59;100.00
12969;BME280;6549;53.128;8.182;2023-05-24T03:19:58;101910.03;;;7.60;100.00
12969;BME280;6549;53.128;8.182;2023-05-24T03:22:58;101912.88;;;7.63;100.00
12969;BME280;6549;53.128;8.182;2023-05-24T03:25:58;101920.41;;;7.66;100.00
12969;BME280;6549;53.128;8.182;2023-05-24T03:28:59;101911.53;;;7.70;100.00
12969;BME280;6549;53.128;8.182;2023-05-24T03:31:59;101907.78;;;7.74;100.00
12969;BME280;6549;53.128;8.182;2023-05-24T03:35:00;101909.63;;;7.82;100.00
12969;BME280;6549;53.128;8.182;2023-05-24T03:38:00;101905.41;;;7.85;100.00
12969;BME280;6549;53.128;8.182;2023-05-24T03:41:00;101907.59;;;7.91;100.00
12969;BME280;6549;53.128;8.182;2023-05-24T03:44:01;101909.97;;;7.93;100.00
12969;BME280;6549;53.128;8.182;2023-05-24T03:47:01;101912.97;;;8.00;100.00
12969;BME280;6549;53.128;8.182;2023-05-24T03:50:03;101916.94;;;8.02;100.00
12969;BME280;6549;53.128;8.182;2023-05-24T03:53:03;101915.50;;;8.05;100.00
12969;BME280;6549;53.128;8.182;2023-05-24T03:56:03;101911.25;;;8.07;100.00
12969;BME280;6549;53.128;8.182;2023-05-24T03:59:04;101915.72;;;8.12;100.00
12969;BME280;6549;53.128;8.182;2023-05-24T04:02:05;101922.91;;;8.17;100.00
12969;BME280;6549;53.128;8.182;2023-05-24T04:05:05;101911.38;;;8.23;100.00
12969;BME280;6549;53.128;8.182;2023-05-24T04:08:09;101910.34;;;8.28;100.00
12969;BME280;6549;53.128;8.182;2023-05-24T04:11:09;101913.69;;;8.33;100.00
12969;BME280;6549;53.128;8.182;2023-05-24T04:14:10;101918.63;;;8.40;100.00
12969;BME280;6549;53.128;8.182;2023-05-24T04:17:10;101913.25;;;8.43;100.00
12969;BME280;6549;53.128;8.182;2023-05-24T04:20:11;101924.44;;;8.50;100.00
12969;BME280;6549;53.128;8.182;2023-05-24T04:23:12;101916.69;;;8.52;100.00
12969;BME280;6549;53.128;8.182;2023-05-24T04:26:13;101923.06;;;8.56;100.00
12969;BME280;6549;53.128;8.182;2023-05-24T04:29:14;101921.47;;;8.55;100.00
12969;BME280;6549;53.128;8.182;2023-05-24T04:32:15;101922.38;;;8.60;100.00
12969;BME280;6549;53.128;8.182;2023-05-24T04:35:17;101913.13;;;8.64;100.00
12969;BME280;6549;53.128;8.182;2023-05-24T04:38:17;101909.34;;;8.69;100.00
12969;BME280;6549;53.128;8.182;2023-05-24T04:41:18;101915.41;;;8.74;100.00
12969;BME280;6549;53.128;8.182;2023-05-24T04:44:19;101919.75;;;8.75;100.00
12969;BME280;6549;53.128;8.182;2023-05-24T04:47:19;101919.94;;;8.82;100.00
12969;BME280;6549;53.128;8.182;2023-05-24T04:50:19;101928.94;;;8.95;100.00
12969;BME280;6549;53.128;8.182;2023-05-24T04:53:20;101933.28;;;8.96;100.00
12969;BME280;6549;53.128;8.182;2023-05-24T04:56:20;101936.50;;;8.98;100.00
12969;BME280;6549;53.128;8.182;2023-05-24T04:59:21;101936.94;;;9.00;100.00
12969;BME280;6549;53.128;8.182;2023-05-24T05:02:22;101942.88;;;9.02;100.00
12969;BME280;6549;53.128;8.182;2023-05-24T05:05:22;101951.91;;;9.02;100.00
12969;BME280;6549;53.128;8.182;2023-05-24T05:08:22;101939.44;;;9.05;100.00
12969;BME280;6549;53.128;8.182;2023-05-24T05:11:23;101941.25;;;9.13;100.00
12969;BME280;6549;53.128;8.182;2023-05-24T05:14:23;101944.66;;;9.22;100.00
12969;BME280;6549;53.128;8.182;2023-05-24T05:17:23;101947.16;;;9.27;100.00
12969;BME280;6549;53.128;8.182;2023-05-24T05:20:24;101960.63;;;9.32;100.00
12969;BME280;6549;53.128;8.182;2023-05-24T05:23:24;101950.56;;;9.36;100.00
12969;BME280;6549;53.128;8.182;2023-05-24T05:26:28;101951.22;;;9.45;100.00
12969;BME280;6549;53.128;8.182;2023-05-24T05:29:29;101949.03;;;9.51;100.00
12969;BME280;6549;53.128;8.182;2023-05-24T05:32:29;101953.47;;;9.56;100.00
12969;BME280;6549;53.128;8.182;2023-05-24T05:35:29;101952.84;;;9.62;100.00
12969;BME280;6549;53.128;8.182;2023-05-24T05:38:30;101959.16;;;9.63;100.00
12969;BME280;6549;53.128;8.182;2023-05-24T05:41:30;101963.03;;;9.62;100.00
12969;BME280;6549;53.128;8.182;2023-05-24T05:44:30;101962.69;;;9.63;100.00
12969;BME280;6549;53.128;8.182;2023-05-24T05:47:31;101964.81;;;9.70;100.00
12969;BME280;6549;53.128;8.182;2023-05-24T05:50:31;101956.09;;;9.80;100.00
12969;BME280;6549;53.128;8.182;2023-05-24T05:53:34;101955.59;;;9.90;100.00
12969;BME280;6549;53.128;8.182;2023-05-24T05:56:35;101943.56;;;9.95;100.00
12969;BME280;6549;53.128;8.182;2023-05-24T05:59:40;101950.03;;;10.02;100.00
12969;BME280;6549;53.128;8.182;2023-05-24T06:02:40;101950.19;;;10.09;100.00
12969;BME280;6549;53.128;8.182;2023-05-24T06:05:40;101955.53;;;10.18;100.00
12969;BME280;6549;53.128;8.182;2023-05-24T06:08:41;101963.09;;;10.21;100.00
12969;BME280;6549;53.128;8.182;2023-05-24T06:11:41;101953.00;;;10.25;100.00
12969;BME280;6549;53.128;8.182;2023-05-24T06:14:43;101961.78;;;10.30;100.00
12969;BME280;6549;53.128;8.182;2023-05-24T06:17:44;101960.34;;;10.36;100.00
12969;BME280;6549;53.128;8.182;2023-05-24T06:20:46;101966.91;;;10.48;100.00
12969;BME280;6549;53.128;8.182;2023-05-24T06:23:47;101968.59;;;10.52;100.00
12969;BME280;6549;53.128;8.182;2023-05-24T06:26:49;101982.97;;;10.61;100.00
12969;BME280;6549;53.128;8.182;2023-05-24T06:29:50;101981.91;;;10.66;100.00
12969;BME280;6549;53.128;8.182;2023-05-24T06:32:50;101982.31;;;10.68;100.00
12969;BME280;6549;53.128;8.182;2023-05-24T06:35:51;101965.13;;;10.71;100.00
12969;BME280;6549;53.128;8.182;2023-05-24T06:38:51;101976.00;;;10.83;100.00
12969;BME280;6549;53.128;8.182;2023-05-24T06:41:51;101975.63;;;11.00;100.00
12969;BME280;6549;53.128;8.182;2023-05-24T06:44:52;101971.28;;;10.99;100.00
12969;BME280;6549;53.128;8.182;2023-05-24T06:47:53;101976.25;;;10.94;100.00
12969;BME280;6549;53.128;8.182;2023-05-24T06:50:53;101970.94;;;11.01;100.00
12969;BME280;6549;53.128;8.182;2023-05-24T06:53:53;101971.94;;;11.12;100.00
12969;BME280;6549;53.128;8.182;2023-05-24T06:56:54;101969.78;;;11.21;100.00
12969;BME280;6549;53.128;8.182;2023-05-24T06:59:54;101973.47;;;11.28;100.00
12969;BME280;6549;53.128;8.182;2023-05-24T07:02:55;101985.28;;;11.29;100.00
12969;BME280;6549;53.128;8.182;2023-05-24T07:05:56;101982.84;;;11.24;100.00
12969;BME280;6549;53.128;8.182;2023-05-24T07:08:57;101996.09;;;11.18;100.00
12969;BME280;6549;53.128;8.182;2023-05-24T07:11:57;101992.31;;;11.26;100.00
12969;BME280;6549;53.128;8.182;2023-05-24T07:14:57;101998.69;;;11.31;100.00
12969;BME280;6549;53.128;8.182;2023-05-24T07:17:58;102003.06;;;11.32;100.00
12969;BME280;6549;53.128;8.182;2023-05-24T07:20:59;102013.59;;;11.30;100.00
12969;BME280;6549;53.128;8.182;2023-05-24T07:24:00;102016.94;;;11.39;100.00
12969;BME280;6549;53.128;8.182;2023-05-24T07:27:00;102011.03;;;11.56;100.00
12969;BME280;6549;53.128;8.182;2023-05-24T07:30:02;102013.56;;;11.64;100.00
12969;BME280;6549;53.128;8.182;2023-05-24T07:33:02;102014.63;;;11.76;100.00
12969;BME280;6549;53.128;8.182;2023-05-24T07:36:04;102008.94;;;11.68;100.00
12969;BME280;6549;53.128;8.182;2023-05-24T07:39:05;102007.81;;;11.89;100.00
12969;BME280;6549;53.128;8.182;2023-05-24T07:42:08;102021.28;;;11.94;100.00
12969;BME280;6549;53.128;8.182;2023-05-24T07:45:09;102016.88;;;11.89;100.00
12969;BME280;6549;53.128;8.182;2023-05-24T07:48:09;102022.34;;;12.08;100.00
12969;BME280;6549;53.128;8.182;2023-05-24T07:51:10;102022.84;;;12.14;100.00
12969;BME280;6549;53.128;8.182;2023-05-24T07:54:10;102019.56;;;12.28;100.00
12969;BME280;6549;53.128;8.182;2023-05-24T07:57:10;102023.69;;;12.18;100.00
12969;BME280;6549;53.128;8.182;2023-05-24T08:00:11;102036.56;;;12.10;100.00
12969;BME280;6549;53.128;8.182;2023-05-24T08:03:15;102021.84;;;12.03;100.00
12969;BME280;6549;53.128;8.182;2023-05-24T08:06:16;102022.91;;;12.18;100.00
12969;BME280;6549;53.128;8.182;2023-05-24T08:09:17;102017.16;;;12.26;100.00
12969;BME280;6549;53.128;8.182;2023-05-24T08:12:17;102018.56;;;12.17;100.00
12969;BME280;6549;53.128;8.182;2023-05-24T08:15:18;102026.16;;;12.23;100.00
12969;BME280;6549;53.128;8.182;2023-05-24T08:18:18;102019.34;;;12.17;100.00
12969;BME280;6549;53.128;8.182;2023-05-24T08:21:19;102027.59;;;12.36;100.00
12969;BME280;6549;53.128;8.182;2023-05-24T08:24:19;102028.44;;;12.40;100.00
12969;BME280;6549;53.128;8.182;2023-05-24T08:27:20;102028.19;;;12.49;100.00
12969;BME280;6549;53.128;8.182;2023-05-24T08:30:21;102032.25;;;12.55;100.00
12969;BME280;6549;53.128;8.182;2023-05-24T08:33:22;102029.28;;;12.67;100.00
12969;BME280;6549;53.128;8.182;2023-05-24T08:36:22;102025.13;;;12.77;100.00
12969;BME280;6549;53.128;8.182;2023-05-24T08:39:22;102031.69;;;12.91;100.00
12969;BME280;6549;53.128;8.182;2023-05-24T08:42:24;102040.38;;;12.93;100.00
12969;BME280;6549;53.128;8.182;2023-05-24T08:45:25;102043.34;;;12.81;100.00
12969;BME280;6549;53.128;8.182;2023-05-24T08:48:25;102050.69;;;12.96;100.00
12969;BME280;6549;53.128;8.182;2023-05-24T08:51:28;102044.88;;;12.79;100.00
12969;BME280;6549;53.128;8.182;2023-05-24T08:54:29;102050.44;;;12.82;100.00
12969;BME280;6549;53.128;8.182;2023-05-24T08:57:30;102054.50;;;12.66;100.00
12969;BME280;6549;53.128;8.182;2023-05-24T09:00:33;102055.47;;;12.54;100.00
12969;BME280;6549;53.128;8.182;2023-05-24T09:03:35;102053.56;;;12.58;100.00
12969;BME280;6549;53.128;8.182;2023-05-24T09:06:35;102051.84;;;12.50;100.00
12969;BME280;6549;53.128;8.182;2023-05-24T09:09:37;102061.56;;;12.44;100.00
12969;BME280;6549;53.128;8.182;2023-05-24T09:12:44;102067.09;;;12.44;100.00
12969;BME280;6549;53.128;8.182;2023-05-24T09:15:46;102074.03;;;12.57;100.00
12969;BME280;6549;53.128;8.182;2023-05-24T09:18:46;102068.75;;;12.71;100.00
12969;BME280;6549;53.128;8.182;2023-05-24T09:21:48;102073.41;;;12.90;100.00
12969;BME280;6549;53.128;8.182;2023-05-24T09:24:49;102071.69;;;13.04;100.00
12969;BME280;6549;53.128;8.182;2023-05-24T09:27:50;102070.59;;;12.86;100.00
12969;BME280;6549;53.128;8.182;2023-05-24T09:30:59;102070.75;;;12.97;100.00
12969;BME280;6549;53.128;8.182;2023-05-24T09:34:01;102075.94;;;12.98;100.00
12969;BME280;6549;53.128;8.182;2023-05-24T09:37:01;102082.28;;;13.02;100.00
12969;BME280;6549;53.128;8.182;2023-05-24T09:40:01;102087.72;;;12.95;100.00
12969;BME280;6549;53.128;8.182;2023-05-24T09:43:07;102086.09;;;12.94;100.00
12969;BME280;6549;53.128;8.182;2023-05-24T09:46:15;102083.84;;;13.00;100.00
12969;BME280;6549;53.128;8.182;2023-05-24T09:49:15;102083.16;;;13.06;100.00
12969;BME280;6549;53.128;8.182;2023-05-24T09:52:20;102088.50;;;13.19;100.00
12969;BME280;6549;53.128;8.182;2023-05-24T09:55:34;102081.09;;;13.23;100.00
12969;BME280;6549;53.128;8.182;2023-05-24T09:59:10;102084.81;;;13.11;100.00
12969;BME280;6549;53.128;8.182;2023-05-24T10:05:41;102085.84;;;13.26;100.00
12969;BME280;6549;53.128;8.182;2023-05-24T10:09:28;102072.81;;;13.23;100.00
12969;BME280;6549;53.128;8.182;2023-05-24T10:12:35;102068.66;;;13.36;100.00
12969;BME280;6549;53.128;8.182;2023-05-24T10:15:57;102070.78;;;13.76;100.00
12969;BME280;6549;53.128;8.182;2023-05-24T10:19:26;102075.94;;;14.11;100.00
12969;BME280;6549;53.128;8.182;2023-05-24T10:22:35;102084.19;;;14.07;100.00
12969;BME280;6549;53.128;8.182;2023-05-24T10:26:06;102089.81;;;14.14;100.00
12969;BME280;6549;53.128;8.182;2023-05-24T10:33:37;102085.97;;;14.26;100.00
12969;BME280;6549;53.128;8.182;2023-05-24T10:37:36;102091.00;;;14.50;100.00
12969;BME280;6549;53.128;8.182;2023-05-24T10:45:30;102089.13;;;14.61;100.00
12969;BME280;6549;53.128;8.182;2023-05-24T10:49:26;102074.72;;;14.42;100.00
12969;BME280;6549;53.128;8.182;2023-05-24T10:52:43;102079.56;;;14.52;100.00
12969;BME280;6549;53.128;8.182;2023-05-24T10:56:02;102072.28;;;14.73;100.00
12969;BME280;6549;53.128;8.182;2023-05-24T10:59:36;102074.41;;;14.50;100.00
12969;BME280;6549;53.128;8.182;2023-05-24T11:02:38;102072.13;;;14.59;100.00
12969;BME280;6549;53.128;8.182;2023-05-24T11:05:56;102077.28;;;14.61;100.00
12969;BME280;6549;53.128;8.182;2023-05-24T11:09:10;102075.69;;;14.60;100.00
12969;BME280;6549;53.128;8.182;2023-05-24T11:12:18;102085.47;;;14.50;100.00
12969;BME280;6549;53.128;8.182;2023-05-24T11:15:22;102082.47;;;14.29;100.00
12969;BME280;6549;53.128;8.182;2023-05-24T11:18:29;102078.09;;;13.94;100.00
12969;BME280;6549;53.128;8.182;2023-05-24T11:21:33;102085.06;;;14.15;100.00
12969;BME280;6549;53.128;8.182;2023-05-24T11:24:36;102090.75;;;14.29;100.00
12969;BME280;6549;53.128;8.182;2023-05-24T11:27:42;102083.53;;;14.54;100.00
12969;BME280;6549;53.128;8.182;2023-05-24T11:31:11;102089.41;;;14.90;100.00
12969;BME280;6549;53.128;8.182;2023-05-24T11:34:18;102083.66;;;15.12;100.00
12969;BME280;6549;53.128;8.182;2023-05-24T11:37:38;102092.84;;;15.27;100.00
12969;BME280;6549;53.128;8.182;2023-05-24T11:40:45;102094.69;;;15.67;100.00
12969;BME280;6549;53.128;8.182;2023-05-24T11:43:49;102091.25;;;15.88;100.00
12969;BME280;6549;53.128;8.182;2023-05-24T11:46:56;102097.19;;;15.90;100.00
12969;BME280;6549;53.128;8.182;2023-05-24T11:50:01;102100.88;;;15.43;100.00
12969;BME280;6549;53.128;8.182;2023-05-24T11:53:11;102089.31;;;14.82;100.00
12969;BME280;6549;53.128;8.182;2023-05-24T11:56:18;102091.47;;;15.00;100.00
12969;BME280;6549;53.128;8.182;2023-05-24T11:59:58;102096.38;;;15.20;100.00
12969;BME280;6549;53.128;8.182;2023-05-24T12:03:17;102101.16;;;15.27;100.00
12969;BME280;6549;53.128;8.182;2023-05-24T12:06:34;102085.66;;;15.19;100.00
12969;BME280;6549;53.128;8.182;2023-05-24T12:09:39;102086.34;;;15.05;100.00
12969;BME280;6549;53.128;8.182;2023-05-24T12:16:28;102095.41;;;14.99;100.00
12969;BME280;6549;53.128;8.182;2023-05-24T12:19:59;102094.66;;;14.61;100.00
12969;BME280;6549;53.128;8.182;2023-05-24T12:26:17;102106.34;;;14.84;100.00
12969;BME280;6549;53.128;8.182;2023-05-24T12:29:19;102101.16;;;14.79;100.00
12969;BME280;6549;53.128;8.182;2023-05-24T12:32:19;102109.47;;;14.79;100.00
12969;BME280;6549;53.128;8.182;2023-05-24T12:35:20;102109.09;;;14.81;100.00
12969;BME280;6549;53.128;8.182;2023-05-24T12:38:23;102105.09;;;14.78;100.00
12969;BME280;6549;53.128;8.182;2023-05-24T12:41:24;102107.56;;;14.87;100.00
12969;BME280;6549;53.128;8.182;2023-05-24T12:44:29;102114.97;;;14.76;100.00
12969;BME280;6549;53.128;8.182;2023-05-24T12:47:30;102112.75;;;14.52;100.00
12969;BME280;6549;53.128;8.182;2023-05-24T12:50:31;102114.81;;;14.25;100.00
12969;BME280;6549;53.128;8.182;2023-05-24T12:53:31;102125.88;;;14.25;100.00
12969;BME280;6549;53.128;8.182;2023-05-24T12:56:31;102126.72;;;14.29;100.00
12969;BME280;6549;53.128;8.182;2023-05-24T12:59:32;102119.53;;;14.24;100.00
12969;BME280;6549;53.128;8.182;2023-05-24T13:02:32;102113.88;;;14.47;100.00
12969;BME280;6549;53.128;8.182;2023-05-24T13:05:33;102119.22;;;14.66;100.00
12969;BME280;6549;53.128;8.182;2023-05-24T13:08:33;102115.31;;;14.71;100.00
12969;BME280;6549;53.128;8.182;2023-05-24T13:11:34;102118.38;;;14.59;100.00
12969;BME280;6549;53.128;8.182;2023-05-24T13:14:35;102125.09;;;14.61;100.00
12969;BME280;6549;53.128;8.182;2023-05-24T13:17:36;102128.16;;;14.53;100.00
12969;BME280;6549;53.128;8.182;2023-05-24T13:20:37;102126.00;;;14.35;100.00
12969;BME280;6549;53.128;8.182;2023-05-24T13:23:37;102123.69;;;14.37;100.00
12969;BME280;6549;53.128;8.182;2023-05-24T13:26:38;102120.25;;;14.18;100.00
12969;BME280;6549;53.128;8.182;2023-05-24T13:29:38;102116.09;;;14.01;100.00
12969;BME280;6549;53.128;8.182;2023-05-24T13:32:39;102121.25;;;14.03;100.00
12969;BME280;6549;53.128;8.182;2023-05-24T13:35:40;102116.97;;;14.09;100.00
12969;BME280;6549;53.128;8.182;2023-05-24T13:38:40;102116.78;;;14.24;100.00
12969;BME280;6549;53.128;8.182;2023-05-24T13:41:41;102118.84;;;14.34;100.00
12969;BME280;6549;53.128;8.182;2023-05-24T13:44:42;102112.72;;;14.48;100.00
12969;BME280;6549;53.128;8.182;2023-05-24T13:47:42;102119.78;;;14.42;100.00
12969;BME280;6549;53.128;8.182;2023-05-24T13:50:43;102128.13;;;14.16;100.00
12969;BME280;6549;53.128;8.182;2023-05-24T13:53:44;102123.13;;;13.95;100.00
12969;BME280;6549;53.128;8.182;2023-05-24T13:56:45;102118.59;;;14.13;100.00
12969;BME280;6549;53.128;8.182;2023-05-24T13:59:48;102122.75;;;14.30;100.00
12969;BME280;6549;53.128;8.182;2023-05-24T14:02:48;102122.94;;;14.44;100.00
12969;BME280;6549;53.128;8.182;2023-05-24T14:05:49;102121.09;;;14.55;100.00
12969;BME280;6549;53.128;8.182;2023-05-24T14:08:49;102125.59;;;14.70;100.00
12969;BME280;6549;53.128;8.182;2023-05-24T14:11:50;102122.63;;;14.90;100.00
12969;BME280;6549;53.128;8.182;2023-05-24T14:14:51;102126.31;;;14.64;100.00
12969;BME280;6549;53.128;8.182;2023-05-24T14:17:51;102127.81;;;14.54;100.00
12969;BME280;6549;53.128;8.182;2023-05-24T14:20:51;102136.88;;;14.51;100.00
12969;BME280;6549;53.128;8.182;2023-05-24T14:23:52;102135.59;;;14.45;100.00
12969;BME280;6549;53.128;8.182;2023-05-24T14:26:53;102136.31;;;14.38;100.00
12969;BME280;6549;53.128;8.182;2023-05-24T14:29:54;102131.09;;;14.33;100.00
12969;BME280;6549;53.128;8.182;2023-05-24T14:33:05;102135.94;;;14.40;100.00
12969;BME280;6549;53.128;8.182;2023-05-24T14:36:12;102136.44;;;14.49;100.00
12969;BME280;6549;53.128;8.182;2023-05-24T14:39:13;102142.81;;;14.53;100.00
12969;BME280;6549;53.128;8.182;2023-05-24T14:42:14;102147.19;;;14.58;100.00
12969;BME280;6549;53.128;8.182;2023-05-24T14:45:15;102149.16;;;14.57;100.00
12969;BME280;6549;53.128;8.182;2023-05-24T14:48:15;102146.09;;;14.32;100.00
12969;BME280;6549;53.128;8.182;2023-05-24T14:51:16;102144.53;;;14.35;100.00
12969;BME280;6549;53.128;8.182;2023-05-24T14:54:16;102148.94;;;14.36;100.00
12969;BME280;6549;53.128;8.182;2023-05-24T14:57:17;102154.19;;;14.48;100.00
12969;BME280;6549;53.128;8.182;2023-05-24T15:00:18;102156.09;;;14.41;100.00
12969;BME280;6549;53.128;8.182;2023-05-24T15:03:18;102153.75;;;14.13;100.00
12969;BME280;6549;53.128;8.182;2023-05-24T15:06:19;102160.69;;;14.00;100.00
12969;BME280;6549;53.128;8.182;2023-05-24T15:09:19;102157.84;;;13.92;100.00
12969;BME280;6549;53.128;8.182;2023-05-24T15:12:19;102154.31;;;13.95;100.00
12969;BME280;6549;53.128;8.182;2023-05-24T15:15:21;102155.47;;;13.94;100.00
12969;BME280;6549;53.128;8.182;2023-05-24T15:18:21;102155.41;;;13.87;100.00
12969;BME280;6549;53.128;8.182;2023-05-24T15:21:24;102163.44;;;14.00;100.00
12969;BME280;6549;53.128;8.182;2023-05-24T15:24:25;102166.59;;;13.98;100.00
12969;BME280;6549;53.128;8.182;2023-05-24T15:27:26;102161.81;;;13.95;100.00
12969;BME280;6549;53.128;8.182;2023-05-24T15:30:26;102161.97;;;14.06;100.00
12969;BME280;6549;53.128;8.182;2023-05-24T15:33:27;102164.25;;;14.00;100.00
12969;BME280;6549;53.128;8.182;2023-05-24T15:36:27;102172.59;;;14.04;100.00
12969;BME280;6549;53.128;8.182;2023-05-24T15:39:28;102166.50;;;13.91;100.00
12969;BME280;6549;53.128;8.182;2023-05-24T15:42:29;102167.19;;;13.84;100.00
12969;BME280;6549;53.128;8.182;2023-05-24T15:45:31;102166.28;;;13.77;100.00
12969;BME280;6549;53.128;8.182;2023-05-24T15:48:32;102170.06;;;13.65;100.00
12969;BME280;6549;53.128;8.182;2023-05-24T15:51:32;102167.31;;;13.65;100.00
12969;BME280;6549;53.128;8.182;2023-05-24T15:54:32;102166.78;;;13.56;100.00
12969;BME280;6549;53.128;8.182;2023-05-24T15:57:33;102167.34;;;13.42;100.00
12969;BME280;6549;53.128;8.182;2023-05-24T16:00:33;102157.91;;;13.43;100.00
12969;BME280;6549;53.128;8.182;2023-05-24T16:03:33;102176.34;;;13.36;100.00
12969;BME280;6549;53.128;8.182;2023-05-24T16:06:37;102166.13;;;13.40;100.00
12969;BME280;6549;53.128;8.182;2023-05-24T16:09:37;102159.31;;;13.34;100.00
12969;BME280;6549;53.128;8.182;2023-05-24T16:12:38;102166.84;;;13.37;100.00
12969;BME280;6549;53.128;8.182;2023-05-24T16:15:39;102159.78;;;13.36;100.00
12969;BME280;6549;53.128;8.182;2023-05-24T16:18:41;102161.69;;;13.32;100.00
12969;BME280;6549;53.128;8.182;2023-05-24T16:21:41;102167.75;;;13.18;100.00
12969;BME280;6549;53.128;8.182;2023-05-24T16:24:45;102163.16;;;13.26;100.00
12969;BME280;6549;53.128;8.182;2023-05-24T16:27:45;102159.28;;;13.30;100.00